Startpagina
METAR-TAF:

METAR-TAF

Vliegvelden :

Tasjkent, Oezbekistan

breedte: 41-16N, lengte: 069-16E, hoogte: 489 m

Actueel weer

Dit bericht is 26 minuten geleden gemaakt, om 12:30 UTC
Wind 4 kt uit het zuiden
Temperatuur 12°C
Vochtigheid 28%
Druk 1014 hPa
Zicht: 4000 m
rook

METAR: UTTT 221230Z 18004KT 4000 FU NSC 12/M06 Q1014 R26R/CLRD70 NOSIG

Tijdstip: 17:56 (12:56 UTC)

Verwachting

Dit bericht is 1 uur en het 56 minuten geleden gemaakt, om 11:00 UTC
Verwachting geldig van 22 om 12 UTC tot 23 om 12 UTC
Wind 8 kt uit het zuidzuidwesten
Zicht: 7000 m
Tijdelijke
van 22 om 15 UTC tot 22 om 24 UTC
Zicht: 3000 m
nevel, rook

TAF: UTTT 221100Z 2212/2312 20008KT 7000 NSC TEMPO 2215/2224 3000 BR FU

Waarnemingen en weersverwachtingen van meer dan 4000 vliegvelden (METAR en TAF).

De beschikbare stations zijn de gele en rode punten op de kaart.

Ga met uw muis naar het station om de naam te zien.

Klik dan om waarnemingen en weersverwachtingen te zien.

kaart wijzigen: klik op de groene knoppen met een zwart kruis om in te zoomen, op de groene knop met een streepje om uit te zoomen of op de groene pijlen voor aangrenzende kaarten.


METAR-TAF: